sensor_id;sensor_type;location;lat;lon;timestamp;temperature;humidity
9371;DHT22;4725;48.384;8.984;2022-11-20T00:01:40;2.90;99.90
9371;DHT22;4725;48.384;8.984;2022-11-20T00:04:10;3.10;99.90
9371;DHT22;4725;48.384;8.984;2022-11-20T00:06:37;3.20;99.90
9371;DHT22;4725;48.384;8.984;2022-11-20T00:09:06;3.30;99.90
9371;DHT22;4725;48.384;8.984;2022-11-20T00:11:34;3.30;99.90
9371;DHT22;4725;48.384;8.984;2022-11-20T00:14:02;5.30;99.90
9371;DHT22;4725;48.384;8.984;2022-11-20T00:16:32;3.30;99.90
9371;DHT22;4725;48.384;8.984;2022-11-20T00:18:59;3.30;99.90
9371;DHT22;4725;48.384;8.984;2022-11-20T00:21:29;3.10;99.90
9371;DHT22;4725;48.384;8.984;2022-11-20T00:23:57;3.10;99.90
9371;DHT22;4725;48.384;8.984;2022-11-20T00:26:27;2.90;99.90
9371;DHT22;4725;48.384;8.984;2022-11-20T00:28:57;2.90;99.90
9371;DHT22;4725;48.384;8.984;2022-11-20T00:31:25;2.80;99.90
9371;DHT22;4725;48.384;8.984;2022-11-20T00:33:53;2.70;99.90
9371;DHT22;4725;48.384;8.984;2022-11-20T00:36:22;2.70;99.90
9371;DHT22;4725;48.384;8.984;2022-11-20T00:38:52;2.60;99.90
9371;DHT22;4725;48.384;8.984;2022-11-20T00:41:20;2.60;99.90
9371;DHT22;4725;48.384;8.984;2022-11-20T00:43:49;2.60;99.90
9371;DHT22;4725;48.384;8.984;2022-11-20T00:46:22;2.70;99.90
9371;DHT22;4725;48.384;8.984;2022-11-20T00:48:49;2.80;99.90
9371;DHT22;4725;48.384;8.984;2022-11-20T00:51:19;2.70;99.90
9371;DHT22;4725;48.384;8.984;2022-11-20T00:53:48;2.70;99.90
9371;DHT22;4725;48.384;8.984;2022-11-20T00:56:17;2.50;99.90
9371;DHT22;4725;48.384;8.984;2022-11-20T00:58:45;2.50;99.90
9371;DHT22;4725;48.384;8.984;2022-11-20T01:01:16;2.50;99.90
9371;DHT22;4725;48.384;8.984;2022-11-20T01:03:46;2.50;99.90
9371;DHT22;4725;48.384;8.984;2022-11-20T01:06:16;2.50;99.90
9371;DHT22;4725;48.384;8.984;2022-11-20T01:08:44;2.50;99.90
9371;DHT22;4725;48.384;8.984;2022-11-20T01:11:13;2.50;99.90
9371;DHT22;4725;48.384;8.984;2022-11-20T01:13:42;2.50;99.90
9371;DHT22;4725;48.384;8.984;2022-11-20T01:16:12;2.50;99.90
9371;DHT22;4725;48.384;8.984;2022-11-20T01:18:43;2.60;99.90
9371;DHT22;4725;48.384;8.984;2022-11-20T01:21:15;2.60;99.90
9371;DHT22;4725;48.384;8.984;2022-11-20T01:23:43;2.60;99.90
9371;DHT22;4725;48.384;8.984;2022-11-20T01:26:13;2.60;99.90
9371;DHT22;4725;48.384;8.984;2022-11-20T01:31:14;2.40;99.90
9371;DHT22;4725;48.384;8.984;2022-11-20T01:33:43;2.40;99.90
9371;DHT22;4725;48.384;8.984;2022-11-20T01:36:11;2.40;99.90
9371;DHT22;4725;48.384;8.984;2022-11-20T01:41:08;2.40;99.90
9371;DHT22;4725;48.384;8.984;2022-11-20T01:43:35;2.30;99.90
9371;DHT22;4725;48.384;8.984;2022-11-20T01:46:05;2.20;99.90
9371;DHT22;4725;48.384;8.984;2022-11-20T01:48:47;2.20;99.90
9371;DHT22;4725;48.384;8.984;2022-11-20T01:51:23;2.20;99.90
9371;DHT22;4725;48.384;8.984;2022-11-20T01:53:54;2.20;99.90
9371;DHT22;4725;48.384;8.984;2022-11-20T01:56:22;2.10;99.90
9371;DHT22;4725;48.384;8.984;2022-11-20T01:58:51;2.20;99.90
9371;DHT22;4725;48.384;8.984;2022-11-20T02:03:50;2.30;99.90
9371;DHT22;4725;48.384;8.984;2022-11-20T02:06:22;2.30;99.90
9371;DHT22;4725;48.384;8.984;2022-11-20T02:11:19;2.50;99.90
9371;DHT22;4725;48.384;8.984;2022-11-20T02:13:46;2.60;99.90
9371;DHT22;4725;48.384;8.984;2022-11-20T02:16:20;2.60;99.90
9371;DHT22;4725;48.384;8.984;2022-11-20T02:18:50;2.70;99.90
9371;DHT22;4725;48.384;8.984;2022-11-20T02:21:28;2.70;99.90
9371;DHT22;4725;48.384;8.984;2022-11-20T02:24:06;2.70;99.90
9371;DHT22;4725;48.384;8.984;2022-11-20T02:26:39;2.70;99.90
9371;DHT22;4725;48.384;8.984;2022-11-20T02:31:37;2.90;99.90
9371;DHT22;4725;48.384;8.984;2022-11-20T02:34:05;2.90;99.90
9371;DHT22;4725;48.384;8.984;2022-11-20T02:36:33;2.80;99.90
9371;DHT22;4725;48.384;8.984;2022-11-20T02:39:03;2.90;99.90
9371;DHT22;4725;48.384;8.984;2022-11-20T02:41:32;2.90;99.90
9371;DHT22;4725;48.384;8.984;2022-11-20T02:43:59;3.00;99.90
9371;DHT22;4725;48.384;8.984;2022-11-20T02:48:53;3.10;99.90
9371;DHT22;4725;48.384;8.984;2022-11-20T02:56:16;3.10;99.90
9371;DHT22;4725;48.384;8.984;2022-11-20T03:03:38;3.00;99.90
9371;DHT22;4725;48.384;8.984;2022-11-20T03:06:05;2.90;99.90
9371;DHT22;4725;48.384;8.984;2022-11-20T03:11:03;2.70;99.90
9371;DHT22;4725;48.384;8.984;2022-11-20T03:13:32;2.70;99.90
9371;DHT22;4725;48.384;8.984;2022-11-20T03:16:06;2.60;99.90
9371;DHT22;4725;48.384;8.984;2022-11-20T03:21:00;2.50;99.90
9371;DHT22;4725;48.384;8.984;2022-11-20T03:23:29;2.50;99.90
9371;DHT22;4725;48.384;8.984;2022-11-20T03:26:06;2.50;99.90
9371;DHT22;4725;48.384;8.984;2022-11-20T03:28:35;2.60;99.90
9371;DHT22;4725;48.384;8.984;2022-11-20T03:31:06;2.60;99.90
9371;DHT22;4725;48.384;8.984;2022-11-20T03:33:33;2.60;99.90
9371;DHT22;4725;48.384;8.984;2022-11-20T03:36:01;2.50;99.90
9371;DHT22;4725;48.384;8.984;2022-11-20T03:38:29;2.30;99.90
9371;DHT22;4725;48.384;8.984;2022-11-20T03:40:59;2.20;99.90
9371;DHT22;4725;48.384;8.984;2022-11-20T03:43:26;2.20;99.90
9371;DHT22;4725;48.384;8.984;2022-11-20T03:45:54;2.20;99.90
9371;DHT22;4725;48.384;8.984;2022-11-20T03:53:16;2.00;99.90
9371;DHT22;4725;48.384;8.984;2022-11-20T03:55:43;2.00;99.90
9371;DHT22;4725;48.384;8.984;2022-11-20T04:03:07;1.70;99.90
9371;DHT22;4725;48.384;8.984;2022-11-20T04:08:02;1.60;99.90
9371;DHT22;4725;48.384;8.984;2022-11-20T04:12:56;1.50;99.90
9371;DHT22;4725;48.384;8.984;2022-11-20T04:25:13;1.40;99.90
9371;DHT22;4725;48.384;8.984;2022-11-20T04:30:08;1.20;99.90
9371;DHT22;4725;48.384;8.984;2022-11-20T04:37:31;1.20;99.90
9371;DHT22;4725;48.384;8.984;2022-11-20T04:39:58;1.20;99.90
9371;DHT22;4725;48.384;8.984;2022-11-20T04:54:45;1.80;99.90
9371;DHT22;4725;48.384;8.984;2022-11-20T04:57:13;1.90;99.90
9371;DHT22;4725;48.384;8.984;2022-11-20T04:59:41;2.00;99.90
9371;DHT22;4725;48.384;8.984;2022-11-20T05:09:30;2.30;99.90
9371;DHT22;4725;48.384;8.984;2022-11-20T05:11:59;2.30;99.90
9371;DHT22;4725;48.384;8.984;2022-11-20T05:21:47;2.20;99.90
9371;DHT22;4725;48.384;8.984;2022-11-20T05:24:14;2.10;99.90
9371;DHT22;4725;48.384;8.984;2022-11-20T05:29:11;1.90;99.90
9371;DHT22;4725;48.384;8.984;2022-11-20T05:31:39;1.90;99.90
9371;DHT22;4725;48.384;8.984;2022-11-20T05:34:07;1.80;99.90
9371;DHT22;4725;48.384;8.984;2022-11-20T05:48:53;2.20;99.90
9371;DHT22;4725;48.384;8.984;2022-11-20T05:51:20;2.20;99.90
9371;DHT22;4725;48.384;8.984;2022-11-20T05:56:16;2.20;99.90
9371;DHT22;4725;48.384;8.984;2022-11-20T05:58:44;2.20;99.90
9371;DHT22;4725;48.384;8.984;2022-11-20T06:01:12;2.20;99.90
9371;DHT22;4725;48.384;8.984;2022-11-20T06:03:41;2.20;99.90
9371;DHT22;4725;48.384;8.984;2022-11-20T06:06:12;2.30;99.90
9371;DHT22;4725;48.384;8.984;2022-11-20T06:11:07;2.40;99.90
9371;DHT22;4725;48.384;8.984;2022-11-20T06:13:34;2.40;99.90
9371;DHT22;4725;48.384;8.984;2022-11-20T06:16:02;2.50;99.90
9371;DHT22;4725;48.384;8.984;2022-11-20T06:18:29;2.60;99.90
9371;DHT22;4725;48.384;8.984;2022-11-20T06:21:02;2.70;99.90
9371;DHT22;4725;48.384;8.984;2022-11-20T06:23:30;2.80;99.90
9371;DHT22;4725;48.384;8.984;2022-11-20T06:26:01;2.70;99.90
9371;DHT22;4725;48.384;8.984;2022-11-20T06:35:50;2.70;99.90
9371;DHT22;4725;48.384;8.984;2022-11-20T06:38:18;2.70;99.90
9371;DHT22;4725;48.384;8.984;2022-11-20T06:40:45;2.70;99.90
9371;DHT22;4725;48.384;8.984;2022-11-20T06:45:39;2.80;99.90
9371;DHT22;4725;48.384;8.984;2022-11-20T06:50:33;2.70;99.90
9371;DHT22;4725;48.384;8.984;2022-11-20T06:53:01;2.80;99.90
9371;DHT22;4725;48.384;8.984;2022-11-20T06:55:30;2.80;99.90
9371;DHT22;4725;48.384;8.984;2022-11-20T06:57:58;2.80;99.90
9371;DHT22;4725;48.384;8.984;2022-11-20T07:02:52;2.90;99.90
9371;DHT22;4725;48.384;8.984;2022-11-20T07:05:19;2.90;99.90
9371;DHT22;4725;48.384;8.984;2022-11-20T07:10:13;3.10;99.90
9371;DHT22;4725;48.384;8.984;2022-11-20T07:12:48;3.10;99.90
9371;DHT22;4725;48.384;8.984;2022-11-20T07:15:16;3.10;99.90
9371;DHT22;4725;48.384;8.984;2022-11-20T07:22:38;3.30;99.90
9371;DHT22;4725;48.384;8.984;2022-11-20T07:25:07;3.40;99.90
9371;DHT22;4725;48.384;8.984;2022-11-20T07:27:34;3.40;99.90
9371;DHT22;4725;48.384;8.984;2022-11-20T07:30:05;3.50;99.90
9371;DHT22;4725;48.384;8.984;2022-11-20T07:32:32;3.50;99.90
9371;DHT22;4725;48.384;8.984;2022-11-20T07:35:00;3.70;99.90
9371;DHT22;4725;48.384;8.984;2022-11-20T07:37:27;3.80;99.90
9371;DHT22;4725;48.384;8.984;2022-11-20T07:42:21;3.90;99.90
9371;DHT22;4725;48.384;8.984;2022-11-20T07:47:17;3.90;99.90
9371;DHT22;4725;48.384;8.984;2022-11-20T07:49:45;3.90;99.90
9371;DHT22;4725;48.384;8.984;2022-11-20T07:57:07;4.10;99.90
9371;DHT22;4725;48.384;8.984;2022-11-20T08:02:01;4.30;99.90
9371;DHT22;4725;48.384;8.984;2022-11-20T08:04:30;4.40;99.90
9371;DHT22;4725;48.384;8.984;2022-11-20T08:06:59;4.50;99.90
9371;DHT22;4725;48.384;8.984;2022-11-20T08:09:26;4.60;99.90
9371;DHT22;4725;48.384;8.984;2022-11-20T08:11:54;4.70;99.90
9371;DHT22;4725;48.384;8.984;2022-11-20T08:14:38;4.80;99.90
9371;DHT22;4725;48.384;8.984;2022-11-20T08:17:06;4.70;99.90
9371;DHT22;4725;48.384;8.984;2022-11-20T08:19:34;4.80;99.90
9371;DHT22;4725;48.384;8.984;2022-11-20T08:24:29;4.80;99.90
9371;DHT22;4725;48.384;8.984;2022-11-20T08:26:58;4.80;99.90
9371;DHT22;4725;48.384;8.984;2022-11-20T08:29:26;4.90;99.90
9371;DHT22;4725;48.384;8.984;2022-11-20T08:31:53;4.90;99.90
9371;DHT22;4725;48.384;8.984;2022-11-20T08:34:20;4.90;99.90
9371;DHT22;4725;48.384;8.984;2022-11-20T08:36:49;5.00;99.90
9371;DHT22;4725;48.384;8.984;2022-11-20T08:41:43;5.10;99.90
9371;DHT22;4725;48.384;8.984;2022-11-20T08:46:39;5.10;99.90
9371;DHT22;4725;48.384;8.984;2022-11-20T08:49:08;5.30;99.90
9371;DHT22;4725;48.384;8.984;2022-11-20T08:51:36;5.20;99.90
9371;DHT22;4725;48.384;8.984;2022-11-20T08:54:06;5.20;99.90
9371;DHT22;4725;48.384;8.984;2022-11-20T08:56:34;5.20;99.90
9371;DHT22;4725;48.384;8.984;2022-11-20T08:59:01;5.10;99.90
9371;DHT22;4725;48.384;8.984;2022-11-20T09:01:28;5.20;99.90
9371;DHT22;4725;48.384;8.984;2022-11-20T09:03:56;5.10;99.90
9371;DHT22;4725;48.384;8.984;2022-11-20T09:06:23;5.10;99.90
9371;DHT22;4725;48.384;8.984;2022-11-20T09:08:52;5.20;99.90
9371;DHT22;4725;48.384;8.984;2022-11-20T09:11:20;5.20;99.90
9371;DHT22;4725;48.384;8.984;2022-11-20T09:13:47;5.10;99.90
9371;DHT22;4725;48.384;8.984;2022-11-20T09:16:14;5.10;99.90
9371;DHT22;4725;48.384;8.984;2022-11-20T09:18:41;5.10;99.90
9371;DHT22;4725;48.384;8.984;2022-11-20T09:21:10;5.00;99.90
9371;DHT22;4725;48.384;8.984;2022-11-20T09:23:38;4.90;99.90
9371;DHT22;4725;48.384;8.984;2022-11-20T09:26:08;5.00;99.90
9371;DHT22;4725;48.384;8.984;2022-11-20T09:28:37;5.00;99.90
9371;DHT22;4725;48.384;8.984;2022-11-20T09:31:05;5.00;99.90
9371;DHT22;4725;48.384;8.984;2022-11-20T09:33:32;5.00;99.90
9371;DHT22;4725;48.384;8.984;2022-11-20T09:35:59;5.00;99.90
9371;DHT22;4725;48.384;8.984;2022-11-20T09:38:26;5.00;99.90
9371;DHT22;4725;48.384;8.984;2022-11-20T09:40:56;5.00;99.90
9371;DHT22;4725;48.384;8.984;2022-11-20T09:43:32;5.00;99.90
9371;DHT22;4725;48.384;8.984;2022-11-20T09:46:09;1.60;99.90
9371;DHT22;4725;48.384;8.984;2022-11-20T09:48:52;5.10;99.90
9371;DHT22;4725;48.384;8.984;2022-11-20T09:51:32;5.10;99.90
9371;DHT22;4725;48.384;8.984;2022-11-20T09:54:13;5.20;99.90
9371;DHT22;4725;48.384;8.984;2022-11-20T09:56:43;5.20;99.90
9371;DHT22;4725;48.384;8.984;2022-11-20T09:59:32;5.30;99.90
9371;DHT22;4725;48.384;8.984;2022-11-20T10:02:03;5.30;99.90
9371;DHT22;4725;48.384;8.984;2022-11-20T10:04:38;5.30;99.90
9371;DHT22;4725;48.384;8.984;2022-11-20T10:07:15;5.40;99.90
9371;DHT22;4725;48.384;8.984;2022-11-20T10:09:50;5.30;99.90
9371;DHT22;4725;48.384;8.984;2022-11-20T10:12:22;5.40;99.90
9371;DHT22;4725;48.384;8.984;2022-11-20T10:14:58;5.30;99.90
9371;DHT22;4725;48.384;8.984;2022-11-20T10:17:58;5.20;99.90
9371;DHT22;4725;48.384;8.984;2022-11-20T10:20:36;5.20;99.90
9371;DHT22;4725;48.384;8.984;2022-11-20T10:23:40;5.30;99.90
9371;DHT22;4725;48.384;8.984;2022-11-20T10:26:17;5.20;99.90
9371;DHT22;4725;48.384;8.984;2022-11-20T10:29:03;5.20;99.90
9371;DHT22;4725;48.384;8.984;2022-11-20T10:31:37;5.20;99.90
9371;DHT22;4725;48.384;8.984;2022-11-20T10:34:16;5.30;99.90
9371;DHT22;4725;48.384;8.984;2022-11-20T10:36:49;5.30;99.90
9371;DHT22;4725;48.384;8.984;2022-11-20T10:39:22;5.30;99.90
9371;DHT22;4725;48.384;8.984;2022-11-20T10:41:51;5.40;99.90
9371;DHT22;4725;48.384;8.984;2022-11-20T10:44:21;5.40;99.90
9371;DHT22;4725;48.384;8.984;2022-11-20T10:47:03;5.50;99.90
9371;DHT22;4725;48.384;8.984;2022-11-20T10:49:33;5.50;99.90
9371;DHT22;4725;48.384;8.984;2022-11-20T10:52:08;5.40;99.90
9371;DHT22;4725;48.384;8.984;2022-11-20T10:54:43;5.40;99.90
9371;DHT22;4725;48.384;8.984;2022-11-20T10:57:20;5.40;99.90
9371;DHT22;4725;48.384;8.984;2022-11-20T10:59:59;5.40;99.90
9371;DHT22;4725;48.384;8.984;2022-11-20T11:02:34;5.40;99.90
9371;DHT22;4725;48.384;8.984;2022-11-20T11:05:11;5.40;99.90
9371;DHT22;4725;48.384;8.984;2022-11-20T11:07:40;5.40;99.90
9371;DHT22;4725;48.384;8.984;2022-11-20T11:10:15;5.40;99.90
9371;DHT22;4725;48.384;8.984;2022-11-20T11:12:44;5.40;99.90
9371;DHT22;4725;48.384;8.984;2022-11-20T11:15:23;5.40;99.90
9371;DHT22;4725;48.384;8.984;2022-11-20T11:17:51;5.40;99.90
9371;DHT22;4725;48.384;8.984;2022-11-20T11:20:21;5.40;99.90
9371;DHT22;4725;48.384;8.984;2022-11-20T11:22:50;5.50;99.90
9371;DHT22;4725;48.384;8.984;2022-11-20T11:25:27;5.50;99.90
9371;DHT22;4725;48.384;8.984;2022-11-20T11:27:56;5.60;99.90
9371;DHT22;4725;48.384;8.984;2022-11-20T11:30:25;5.70;99.90
9371;DHT22;4725;48.384;8.984;2022-11-20T11:33:03;5.50;99.90
9371;DHT22;4725;48.384;8.984;2022-11-20T11:35:32;5.50;99.90
9371;DHT22;4725;48.384;8.984;2022-11-20T11:38:05;5.60;99.90
9371;DHT22;4725;48.384;8.984;2022-11-20T11:40:35;5.50;99.90
9371;DHT22;4725;48.384;8.984;2022-11-20T11:43:05;5.40;99.90
9371;DHT22;4725;48.384;8.984;2022-11-20T11:45:54;5.50;99.90
9371;DHT22;4725;48.384;8.984;2022-11-20T11:48:20;5.80;99.90
9371;DHT22;4725;48.384;8.984;2022-11-20T11:50:50;6.00;99.90
9371;DHT22;4725;48.384;8.984;2022-11-20T11:53:19;6.10;99.90
9371;DHT22;4725;48.384;8.984;2022-11-20T11:55:49;6.20;99.90
9371;DHT22;4725;48.384;8.984;2022-11-20T11:58:34;6.90;99.90
9371;DHT22;4725;48.384;8.984;2022-11-20T12:01:17;8.00;99.90
9371;DHT22;4725;48.384;8.984;2022-11-20T12:03:55;7.80;99.90
9371;DHT22;4725;48.384;8.984;2022-11-20T12:06:29;10.00;99.90
9371;DHT22;4725;48.384;8.984;2022-11-20T12:09:01;9.10;99.90
9371;DHT22;4725;48.384;8.984;2022-11-20T12:11:33;7.80;99.90
9371;DHT22;4725;48.384;8.984;2022-11-20T12:14:10;7.40;99.90
9371;DHT22;4725;48.384;8.984;2022-11-20T12:16:39;7.50;99.90
9371;DHT22;4725;48.384;8.984;2022-11-20T12:19:10;7.40;99.90
9371;DHT22;4725;48.384;8.984;2022-11-20T12:21:47;7.00;99.90
9371;DHT22;4725;48.384;8.984;2022-11-20T12:24:33;6.90;99.90
9371;DHT22;4725;48.384;8.984;2022-11-20T12:27:20;7.30;99.90
9371;DHT22;4725;48.384;8.984;2022-11-20T12:29:57;8.60;99.90
9371;DHT22;4725;48.384;8.984;2022-11-20T12:32:52;9.60;99.90
9371;DHT22;4725;48.384;8.984;2022-11-20T12:35:36;9.60;99.90
9371;DHT22;4725;48.384;8.984;2022-11-20T12:38:29;10.20;99.90
9371;DHT22;4725;48.384;8.984;2022-11-20T12:41:05;8.60;99.90
9371;DHT22;4725;48.384;8.984;2022-11-20T12:43:41;9.10;99.90
9371;DHT22;4725;48.384;8.984;2022-11-20T12:46:31;9.20;99.90
9371;DHT22;4725;48.384;8.984;2022-11-20T12:49:21;9.40;99.90
9371;DHT22;4725;48.384;8.984;2022-11-20T12:52:16;9.00;99.90
9371;DHT22;4725;48.384;8.984;2022-11-20T12:55:04;8.30;99.90
9371;DHT22;4725;48.384;8.984;2022-11-20T12:57:43;8.20;99.90
9371;DHT22;4725;48.384;8.984;2022-11-20T13:00:15;8.00;99.90
9371;DHT22;4725;48.384;8.984;2022-11-20T13:03:21;7.50;99.90
9371;DHT22;4725;48.384;8.984;2022-11-20T13:05:58;7.00;99.90
9371;DHT22;4725;48.384;8.984;2022-11-20T13:08:29;6.70;99.90
9371;DHT22;4725;48.384;8.984;2022-11-20T13:11:03;6.50;99.90
9371;DHT22;4725;48.384;8.984;2022-11-20T13:13:42;6.50;99.90
9371;DHT22;4725;48.384;8.984;2022-11-20T13:16:14;6.50;99.90
9371;DHT22;4725;48.384;8.984;2022-11-20T13:18:44;6.50;99.90
9371;DHT22;4725;48.384;8.984;2022-11-20T13:21:15;6.70;99.90
9371;DHT22;4725;48.384;8.984;2022-11-20T13:23:42;6.70;99.90
9371;DHT22;4725;48.384;8.984;2022-11-20T13:26:19;6.60;99.90
9371;DHT22;4725;48.384;8.984;2022-11-20T13:28:48;6.60;99.90
9371;DHT22;4725;48.384;8.984;2022-11-20T13:31:31;6.50;99.90
9371;DHT22;4725;48.384;8.984;2022-11-20T13:34:00;6.30;99.90
9371;DHT22;4725;48.384;8.984;2022-11-20T13:36:29;6.30;99.90
9371;DHT22;4725;48.384;8.984;2022-11-20T13:38:58;6.30;99.90
9371;DHT22;4725;48.384;8.984;2022-11-20T13:41:29;6.90;99.90
9371;DHT22;4725;48.384;8.984;2022-11-20T13:44:05;7.10;99.90
9371;DHT22;4725;48.384;8.984;2022-11-20T13:46:37;7.30;99.90
9371;DHT22;4725;48.384;8.984;2022-11-20T13:49:10;7.80;99.90
9371;DHT22;4725;48.384;8.984;2022-11-20T13:51:43;8.70;99.90
9371;DHT22;4725;48.384;8.984;2022-11-20T13:54:34;9.50;99.90
9371;DHT22;4725;48.384;8.984;2022-11-20T13:57:20;9.50;99.90
9371;DHT22;4725;48.384;8.984;2022-11-20T13:59:56;9.40;99.90
9371;DHT22;4725;48.384;8.984;2022-11-20T14:02:26;9.60;99.90
9371;DHT22;4725;48.384;8.984;2022-11-20T14:04:57;9.50;99.90
9371;DHT22;4725;48.384;8.984;2022-11-20T14:07:31;9.50;99.90
9371;DHT22;4725;48.384;8.984;2022-11-20T14:09:58;8.80;99.90
9371;DHT22;4725;48.384;8.984;2022-11-20T14:12:30;8.30;99.90
9371;DHT22;4725;48.384;8.984;2022-11-20T14:14:58;8.30;99.90
9371;DHT22;4725;48.384;8.984;2022-11-20T14:17:30;7.40;99.90
9371;DHT22;4725;48.384;8.984;2022-11-20T14:20:00;9.80;99.90
9371;DHT22;4725;48.384;8.984;2022-11-20T14:22:28;8.10;99.90
9371;DHT22;4725;48.384;8.984;2022-11-20T14:25:05;8.00;99.90
9371;DHT22;4725;48.384;8.984;2022-11-20T14:27:37;7.70;99.90
9371;DHT22;4725;48.384;8.984;2022-11-20T14:30:05;7.30;99.90
9371;DHT22;4725;48.384;8.984;2022-11-20T14:32:35;7.00;99.90
9371;DHT22;4725;48.384;8.984;2022-11-20T14:35:07;6.90;99.90
9371;DHT22;4725;48.384;8.984;2022-11-20T14:37:37;6.80;99.90
9371;DHT22;4725;48.384;8.984;2022-11-20T14:40:23;6.60;99.90
9371;DHT22;4725;48.384;8.984;2022-11-20T14:42:51;6.50;99.90
9371;DHT22;4725;48.384;8.984;2022-11-20T14:45:19;6.40;99.90
9371;DHT22;4725;48.384;8.984;2022-11-20T14:47:48;6.30;99.90
9371;DHT22;4725;48.384;8.984;2022-11-20T14:50:19;6.30;99.90
9371;DHT22;4725;48.384;8.984;2022-11-20T14:52:53;6.30;99.90
9371;DHT22;4725;48.384;8.984;2022-11-20T14:55:28;6.30;99.90
9371;DHT22;4725;48.384;8.984;2022-11-20T14:57:58;6.40;99.90
9371;DHT22;4725;48.384;8.984;2022-11-20T15:00:26;6.30;99.90
9371;DHT22;4725;48.384;8.984;2022-11-20T15:02:53;6.30;99.90
9371;DHT22;4725;48.384;8.984;2022-11-20T15:05:22;6.20;99.90
9371;DHT22;4725;48.384;8.984;2022-11-20T15:07:50;6.10;99.90
9371;DHT22;4725;48.384;8.984;2022-11-20T15:10:22;6.00;99.90
9371;DHT22;4725;48.384;8.984;2022-11-20T15:12:51;5.90;99.90
9371;DHT22;4725;48.384;8.984;2022-11-20T15:15:23;5.80;99.90
9371;DHT22;4725;48.384;8.984;2022-11-20T15:17:51;5.60;99.90
9371;DHT22;4725;48.384;8.984;2022-11-20T15:22:45;5.40;99.90
9371;DHT22;4725;48.384;8.984;2022-11-20T15:25:13;5.40;99.90
9371;DHT22;4725;48.384;8.984;2022-11-20T15:30:15;5.10;99.90
9371;DHT22;4725;48.384;8.984;2022-11-20T15:32:45;5.00;99.90
9371;DHT22;4725;48.384;8.984;2022-11-20T15:35:13;5.00;99.90
9371;DHT22;4725;48.384;8.984;2022-11-20T15:37:40;4.80;99.90
9371;DHT22;4725;48.384;8.984;2022-11-20T15:40:08;4.90;99.90
9371;DHT22;4725;48.384;8.984;2022-11-20T15:47:33;4.90;99.90
9371;DHT22;4725;48.384;8.984;2022-11-20T15:50:02;4.90;99.90
9371;DHT22;4725;48.384;8.984;2022-11-20T15:52:29;4.90;99.90
9371;DHT22;4725;48.384;8.984;2022-11-20T15:54:56;4.80;99.90
9371;DHT22;4725;48.384;8.984;2022-11-20T15:59:52;4.90;99.90
9371;DHT22;4725;48.384;8.984;2022-11-20T16:02:19;4.90;99.90
9371;DHT22;4725;48.384;8.984;2022-11-20T16:07:15;4.90;99.90
9371;DHT22;4725;48.384;8.984;2022-11-20T16:09:42;4.90;99.90
9371;DHT22;4725;48.384;8.984;2022-11-20T16:12:09;4.90;99.90
9371;DHT22;4725;48.384;8.984;2022-11-20T16:20:11;5.00;99.90
9371;DHT22;4725;48.384;8.984;2022-11-20T16:22:39;5.10;99.90
9371;DHT22;4725;48.384;8.984;2022-11-20T16:25:07;5.10;99.90
9371;DHT22;4725;48.384;8.984;2022-11-20T16:27:34;5.10;99.90
9371;DHT22;4725;48.384;8.984;2022-11-20T16:37:22;5.00;99.90
9371;DHT22;4725;48.384;8.984;2022-11-20T16:39:50;5.00;99.90
9371;DHT22;4725;48.384;8.984;2022-11-20T16:42:17;5.00;99.90
9371;DHT22;4725;48.384;8.984;2022-11-20T16:44:45;4.90;99.90
9371;DHT22;4725;48.384;8.984;2022-11-20T16:47:13;4.90;99.90
9371;DHT22;4725;48.384;8.984;2022-11-20T16:49:40;5.00;99.90
9371;DHT22;4725;48.384;8.984;2022-11-20T16:54:35;5.00;99.90
9371;DHT22;4725;48.384;8.984;2022-11-20T17:01:59;4.90;99.90
9371;DHT22;4725;48.384;8.984;2022-11-20T17:04:26;4.80;99.90
9371;DHT22;4725;48.384;8.984;2022-11-20T17:06:53;4.70;99.90
9371;DHT22;4725;48.384;8.984;2022-11-20T17:09:20;4.80;99.90
9371;DHT22;4725;48.384;8.984;2022-11-20T17:11:47;4.70;99.90
9371;DHT22;4725;48.384;8.984;2022-11-20T17:14:16;4.70;99.90
9371;DHT22;4725;48.384;8.984;2022-11-20T17:16:43;4.60;99.90
9371;DHT22;4725;48.384;8.984;2022-11-20T17:19:10;4.60;99.90
9371;DHT22;4725;48.384;8.984;2022-11-20T17:21:37;4.60;99.90
9371;DHT22;4725;48.384;8.984;2022-11-20T17:24:06;4.50;99.90
9371;DHT22;4725;48.384;8.984;2022-11-20T17:26:34;4.50;99.90
9371;DHT22;4725;48.384;8.984;2022-11-20T17:29:03;4.50;99.90
9371;DHT22;4725;48.384;8.984;2022-11-20T17:31:33;4.50;99.90
9371;DHT22;4725;48.384;8.984;2022-11-20T17:34:01;4.50;99.90
9371;DHT22;4725;48.384;8.984;2022-11-20T17:36:29;4.50;99.90
9371;DHT22;4725;48.384;8.984;2022-11-20T17:38:56;4.40;99.90
9371;DHT22;4725;48.384;8.984;2022-11-20T17:41:24;4.40;99.90
9371;DHT22;4725;48.384;8.984;2022-11-20T17:43:53;4.40;99.90
9371;DHT22;4725;48.384;8.984;2022-11-20T17:46:21;4.40;99.90
9371;DHT22;4725;48.384;8.984;2022-11-20T17:48:50;4.40;99.90
9371;DHT22;4725;48.384;8.984;2022-11-20T17:51:19;4.50;99.90
9371;DHT22;4725;48.384;8.984;2022-11-20T17:53:48;4.50;99.90
9371;DHT22;4725;48.384;8.984;2022-11-20T17:56:15;4.50;99.90
9371;DHT22;4725;48.384;8.984;2022-11-20T17:59:02;4.50;99.90
9371;DHT22;4725;48.384;8.984;2022-11-20T18:01:29;4.60;99.90
9371;DHT22;4725;48.384;8.984;2022-11-20T18:03:58;4.70;99.90
9371;DHT22;4725;48.384;8.984;2022-11-20T18:06:26;4.60;99.90
9371;DHT22;4725;48.384;8.984;2022-11-20T18:08:53;4.70;99.90
9371;DHT22;4725;48.384;8.984;2022-11-20T18:11:22;4.80;99.90
9371;DHT22;4725;48.384;8.984;2022-11-20T18:13:51;4.80;99.90
9371;DHT22;4725;48.384;8.984;2022-11-20T18:16:34;4.90;99.90
9371;DHT22;4725;48.384;8.984;2022-11-20T18:19:03;5.00;99.90
9371;DHT22;4725;48.384;8.984;2022-11-20T18:21:30;5.10;99.90
9371;DHT22;4725;48.384;8.984;2022-11-20T18:26:25;5.20;99.90
9371;DHT22;4725;48.384;8.984;2022-11-20T18:28:53;5.20;99.90
9371;DHT22;4725;48.384;8.984;2022-11-20T18:31:20;5.30;99.90
9371;DHT22;4725;48.384;8.984;2022-11-20T18:36:20;5.30;99.90
9371;DHT22;4725;48.384;8.984;2022-11-20T18:38:49;5.30;99.90
9371;DHT22;4725;48.384;8.984;2022-11-20T18:41:18;5.40;99.90
9371;DHT22;4725;48.384;8.984;2022-11-20T18:44:05;5.40;99.90
9371;DHT22;4725;48.384;8.984;2022-11-20T18:46:51;5.40;99.90
9371;DHT22;4725;48.384;8.984;2022-11-20T18:49:18;5.40;99.90
9371;DHT22;4725;48.384;8.984;2022-11-20T18:51:47;5.40;99.90
9371;DHT22;4725;48.384;8.984;2022-11-20T18:54:14;5.40;99.90
9371;DHT22;4725;48.384;8.984;2022-11-20T18:56:41;5.40;99.90
9371;DHT22;4725;48.384;8.984;2022-11-20T18:59:08;5.30;99.90
9371;DHT22;4725;48.384;8.984;2022-11-20T19:01:36;5.30;99.90
9371;DHT22;4725;48.384;8.984;2022-11-20T19:04:05;5.20;99.90
9371;DHT22;4725;48.384;8.984;2022-11-20T19:06:32;5.10;99.90
9371;DHT22;4725;48.384;8.984;2022-11-20T19:09:01;5.00;99.90
9371;DHT22;4725;48.384;8.984;2022-11-20T19:13:55;4.70;99.90
9371;DHT22;4725;48.384;8.984;2022-11-20T19:16:23;4.60;99.90
9371;DHT22;4725;48.384;8.984;2022-11-20T19:18:50;4.50;99.90
9371;DHT22;4725;48.384;8.984;2022-11-20T19:21:18;4.40;99.90
9371;DHT22;4725;48.384;8.984;2022-11-20T19:23:47;4.40;99.90
9371;DHT22;4725;48.384;8.984;2022-11-20T19:26:15;4.40;99.90
9371;DHT22;4725;48.384;8.984;2022-11-20T19:31:11;4.20;99.90
9371;DHT22;4725;48.384;8.984;2022-11-20T19:36:10;4.00;99.90
9371;DHT22;4725;48.384;8.984;2022-11-20T19:38:38;3.80;99.90
9371;DHT22;4725;48.384;8.984;2022-11-20T19:41:06;3.80;99.90
9371;DHT22;4725;48.384;8.984;2022-11-20T19:43:35;3.70;99.90
9371;DHT22;4725;48.384;8.984;2022-11-20T19:46:02;3.60;99.90
9371;DHT22;4725;48.384;8.984;2022-11-20T19:55:55;3.50;99.90
9371;DHT22;4725;48.384;8.984;2022-11-20T20:00:51;3.50;99.90
9371;DHT22;4725;48.384;8.984;2022-11-20T20:05:45;3.50;99.90
9371;DHT22;4725;48.384;8.984;2022-11-20T20:08:12;3.50;99.90
9371;DHT22;4725;48.384;8.984;2022-11-20T20:13:07;3.50;99.90